Time;durP1;ratioP1;P1;durP2;ratioP2;P2;SDS_P1;SDS_P2;PMS_P1;PMS_P2;Temp;Humidity;BMP_temperature;BMP_pressure;BME280_temperature;BME280_humidity;BME280_pressure;Samples;Min_cycle;Max_cycle;Signal;HPM_P1;HPM_P2
2021/05/16 00:01:24;;;;;;;4.23;2.50;;;12.10;99.90;;;;;;4920294;29;20462;-71
2021/05/16 00:03:49;;;;;;;4.27;2.40;;;12.00;99.90;;;;;;4934075;29;20230;-71
2021/05/16 00:06:15;;;;;;;4.10;2.37;;;12.10;99.90;;;;;;4919583;29;20253;-71
2021/05/16 00:08:41;;;;;;;5.53;3.10;;;12.10;99.90;;;;;;4921017;29;20218;-71
2021/05/16 00:11:07;;;;;;;8.03;3.10;;;12.10;99.90;;;;;;4920365;29;20190;-71
2021/05/16 00:13:33;;;;;;;8.03;2.30;;;12.10;99.90;;;;;;4919611;29;20408;-71
2021/05/16 00:15:58;;;;;;;4.77;2.83;;;12.00;99.90;;;;;;4920111;29;20257;-72
2021/05/16 00:18:24;;;;;;;7.37;3.00;;;12.00;99.90;;;;;;4919544;29;20181;-72
2021/05/16 00:20:50;;;;;;;7.03;2.57;;;12.00;99.90;;;;;;4920650;29;20710;-72
2021/05/16 00:23:15;;;;;;;5.23;1.87;;;12.00;99.90;;;;;;4919331;29;20171;-72
2021/05/16 00:25:41;;;;;;;4.10;2.30;;;12.00;99.90;;;;;;4919184;29;20195;-72
2021/05/16 00:28:07;;;;;;;6.07;3.10;;;12.00;99.90;;;;;;4919209;29;20415;-72
2021/05/16 00:30:33;;;;;;;6.03;2.13;;;12.00;99.90;;;;;;4919855;29;20423;-71
2021/05/16 00:33:00;;;;;;;6.07;2.67;;;11.90;99.90;;;;;;4919499;29;20597;-71
2021/05/16 00:35:29;;;;;;;7.50;2.80;;;11.90;99.90;;;;;;4918843;29;20920;-72
2021/05/16 00:37:56;;;;;;;6.33;2.37;;;11.90;99.90;;;;;;4919476;29;20399;-72
2021/05/16 00:40:21;;;;;;;6.93;3.23;;;11.90;99.90;;;;;;4919541;29;20506;-72
2021/05/16 00:42:47;;;;;;;6.40;2.50;;;11.90;99.90;;;;;;4919667;29;21011;-71
2021/05/16 00:45:15;;;;;;;8.20;2.97;;;11.90;99.90;;;;;;4918969;29;20187;-71
2021/05/16 00:47:47;;;;;;;5.00;2.80;;;11.90;99.90;;;;;;4919454;29;20639;-71
2021/05/16 00:50:14;;;;;;;7.40;2.50;;;12.00;99.90;;;;;;4918898;29;20490;-71
2021/05/16 00:52:41;;;;;;;6.90;2.37;;;12.00;99.90;;;;;;4919771;29;20465;-72
2021/05/16 00:55:08;;;;;;;7.13;3.20;;;12.00;99.90;;;;;;4918660;29;20431;-72
2021/05/16 00:57:34;;;;;;;8.37;3.40;;;12.10;99.90;;;;;;4918746;29;20433;-72
2021/05/16 01:00:00;;;;;;;6.47;2.47;;;12.10;99.90;;;;;;4924537;29;20760;-71
2021/05/16 01:02:25;;;;;;;7.73;2.50;;;12.10;99.90;;;;;;4937719;29;20178;-72
2021/05/16 01:04:51;;;;;;;5.10;2.50;;;12.10;99.90;;;;;;4937893;29;20202;-72
2021/05/16 01:07:18;;;;;;;7.30;3.30;;;12.00;99.90;;;;;;4937978;29;20186;-72
2021/05/16 01:09:43;;;;;;;4.10;2.50;;;12.00;99.90;;;;;;4936579;29;20183;-71
2021/05/16 01:12:10;;;;;;;6.50;2.93;;;11.90;99.90;;;;;;4952328;28;20544;-72
2021/05/16 01:14:39;;;;;;;11.03;2.80;;;12.00;99.90;;;;;;4937309;29;20225;-73
2021/05/16 01:17:05;;;;;;;4.97;2.60;;;11.90;99.90;;;;;;4937434;29;20445;-71
2021/05/16 01:19:32;;;;;;;5.80;2.37;;;11.90;99.90;;;;;;4937735;29;20425;-72
2021/05/16 01:21:58;;;;;;;8.33;2.83;;;11.90;99.90;;;;;;4935918;29;20253;-72
2021/05/16 01:24:26;;;;;;;7.22;3.10;;;12.00;99.90;;;;;;4936974;28;20425;-71
2021/05/16 01:26:52;;;;;;;4.30;2.50;;;11.90;99.90;;;;;;4937795;29;20150;-72
2021/05/16 01:29:21;;;;;;;5.47;2.30;;;12.00;99.90;;;;;;4935919;29;20433;-72
2021/05/16 01:31:47;;;;;;;8.02;3.05;;;12.00;99.90;;;;;;4934737;29;20425;-72
2021/05/16 01:34:13;;;;;;;6.73;2.27;;;12.00;99.90;;;;;;4937032;29;20644;-72
2021/05/16 01:36:39;;;;;;;8.80;2.70;;;12.00;99.90;;;;;;4936909;29;20425;-72
2021/05/16 01:39:08;;;;;;;9.70;3.03;;;12.00;99.90;;;;;;4936839;29;20799;-71
2021/05/16 01:41:34;;;;;;;8.00;3.10;;;12.00;99.90;;;;;;4935785;28;20580;-72
2021/05/16 01:44:00;;;;;;;10.97;3.27;;;12.00;99.90;;;;;;4918765;29;20518;-72
2021/05/16 01:46:26;;;;;;;4.37;2.63;;;12.00;99.90;;;;;;4918005;29;20543;-72
2021/05/16 01:48:52;;;;;;;11.70;2.60;;;11.90;99.90;;;;;;4918053;29;20514;-71
2021/05/16 01:51:19;;;;;;;9.07;2.40;;;11.90;99.90;;;;;;4918125;29;20728;-71
2021/05/16 01:53:45;;;;;;;4.60;2.30;;;11.90;99.90;;;;;;4920003;29;20261;-72
2021/05/16 01:56:29;;;;;;;8.70;2.30;;;11.80;99.90;;;;;;4918366;29;20436;-72
2021/05/16 01:58:57;;;;;;;10.80;3.03;;;11.70;99.90;;;;;;4918030;29;20848;-72
2021/05/16 02:01:24;;;;;;;9.30;2.57;;;11.70;99.90;;;;;;4917863;29;20495;-70
2021/05/16 02:03:50;;;;;;;12.90;3.70;;;11.70;99.90;;;;;;4919125;29;20415;-70
2021/05/16 02:06:16;;;;;;;8.70;2.57;;;11.70;99.90;;;;;;4917495;29;21008;-71
2021/05/16 02:08:43;;;;;;;8.83;3.07;;;11.70;99.90;;;;;;4917357;29;20214;-72
2021/05/16 02:11:10;;;;;;;8.10;3.00;;;11.70;99.90;;;;;;4917876;29;20462;-71
2021/05/16 02:13:37;;;;;;;8.27;2.73;;;11.70;99.90;;;;;;4917030;29;20423;-72
2021/05/16 02:16:03;;;;;;;4.73;2.47;;;11.70;99.90;;;;;;4935397;29;20840;-71
2021/05/16 02:18:29;;;;;;;6.13;3.00;;;11.70;99.90;;;;;;4936296;28;20842;-71
2021/05/16 02:20:54;;;;;;;9.53;3.00;;;11.70;99.90;;;;;;4936806;29;20541;-71
2021/05/16 02:23:20;;;;;;;7.10;2.60;;;11.70;99.90;;;;;;4936267;29;20241;-71
2021/05/16 02:25:46;;;;;;;8.30;2.93;;;11.60;99.90;;;;;;4933747;29;20421;-71
2021/05/16 02:28:11;;;;;;;6.63;2.67;;;11.70;99.90;;;;;;4937091;29;20510;-70
2021/05/16 02:30:37;;;;;;;7.13;3.00;;;11.60;99.90;;;;;;4936402;28;20190;-71
2021/05/16 02:33:04;;;;;;;9.63;3.22;;;11.70;99.90;;;;;;4935008;29;20414;-71
2021/05/16 02:35:30;;;;;;;9.77;3.10;;;11.70;99.90;;;;;;4930964;29;20563;-72
2021/05/16 02:37:56;;;;;;;5.40;2.17;;;11.70;99.90;;;;;;4917525;29;20426;-72
2021/05/16 02:40:21;;;;;;;14.13;3.07;;;11.60;99.90;;;;;;4917393;29;20414;-72
2021/05/16 02:42:47;;;;;;;8.23;2.90;;;11.60;99.90;;;;;;4917082;29;20190;-71
2021/05/16 02:45:13;;;;;;;7.13;3.07;;;11.70;99.90;;;;;;4917275;29;20191;-72
2021/05/16 02:47:39;;;;;;;6.93;2.73;;;11.60;99.90;;;;;;4918210;29;20198;-72
2021/05/16 02:50:06;;;;;;;12.47;2.80;;;11.60;99.90;;;;;;4917359;29;20455;-71
2021/05/16 02:52:32;;;;;;;11.20;3.10;;;11.70;99.90;;;;;;4918845;29;20167;-71
2021/05/16 02:54:57;;;;;;;11.20;2.63;;;11.60;99.90;;;;;;4920960;29;20574;-71
2021/05/16 02:57:23;;;;;;;5.90;2.20;;;11.60;99.90;;;;;;4921951;29;20195;-71
2021/05/16 02:59:49;;;;;;;10.07;2.97;;;11.60;99.90;;;;;;4920894;29;20661;-71
2021/05/16 03:02:15;;;;;;;10.27;3.37;;;11.70;99.90;;;;;;4920802;29;20242;-71
2021/05/16 03:04:44;;;;;;;6.90;2.70;;;11.70;99.90;;;;;;4921815;29;20462;-71
2021/05/16 03:07:10;;;;;;;8.10;2.90;;;11.60;99.90;;;;;;4937348;29;20516;-71
2021/05/16 03:09:35;;;;;;;6.33;2.57;;;11.60;99.90;;;;;;4920961;29;20836;-72
2021/05/16 03:12:05;;;;;;;8.60;3.50;;;11.70;99.90;;;;;;4921340;29;20187;-71
2021/05/16 03:14:31;;;;;;;7.17;3.27;;;11.70;99.90;;;;;;4922018;29;20592;-72
2021/05/16 03:16:58;;;;;;;5.37;3.00;;;11.60;99.90;;;;;;4921478;29;20466;-71
2021/05/16 03:19:25;;;;;;;9.63;3.33;;;11.60;99.90;;;;;;4922688;29;20171;-71
2021/05/16 03:21:51;;;;;;;7.40;3.20;;;11.60;99.90;;;;;;4920785;29;20490;-72
2021/05/16 03:24:16;;;;;;;11.20;4.17;;;11.60;99.90;;;;;;4920042;29;20490;-72
2021/05/16 03:26:42;;;;;;;9.18;3.60;;;11.50;99.90;;;;;;4919677;29;20463;-71
2021/05/16 03:29:08;;;;;;;6.97;3.47;;;11.50;99.90;;;;;;4921583;29;20187;-72
2021/05/16 03:31:34;;;;;;;7.50;2.87;;;11.50;99.90;;;;;;4920819;29;20262;-71
2021/05/16 03:34:00;;;;;;;14.63;4.00;;;11.50;99.90;;;;;;4920190;29;20418;-71
2021/05/16 03:36:25;;;;;;;6.40;3.07;;;11.40;99.90;;;;;;4920545;29;20466;-72
2021/05/16 03:38:51;;;;;;;6.67;3.23;;;11.40;99.90;;;;;;4920804;29;20186;-71
2021/05/16 03:41:17;;;;;;;7.93;3.20;;;11.40;99.90;;;;;;4920210;29;20226;-71
2021/05/16 03:43:44;;;;;;;6.50;3.80;;;11.40;99.90;;;;;;4920266;29;20249;-72
2021/05/16 03:46:10;;;;;;;6.50;3.20;;;11.40;99.90;;;;;;4920043;29;20183;-71
2021/05/16 03:48:35;;;;;;;6.47;3.10;;;11.40;99.90;;;;;;4931718;29;20441;-72
2021/05/16 03:51:01;;;;;;;3.20;2.40;;;11.30;99.90;;;;;;4927135;29;20426;-71
2021/05/16 03:53:26;;;;;;;8.53;3.70;;;11.30;99.90;;;;;;4920087;29;20171;-72
2021/05/16 03:55:52;;;;;;;9.33;3.43;;;11.30;99.90;;;;;;4919963;29;20669;-72
2021/05/16 03:58:18;;;;;;;5.13;3.57;;;11.30;99.90;;;;;;4919956;29;20198;-72
2021/05/16 04:00:43;;;;;;;6.20;3.20;;;11.20;99.90;;;;;;4920887;29;20206;-71
2021/05/16 04:03:09;;;;;;;5.13;3.57;;;11.20;99.90;;;;;;4919619;29;20183;-71
2021/05/16 04:05:34;;;;;;;5.63;3.00;;;11.20;99.90;;;;;;4919233;29;20207;-71
2021/05/16 04:08:00;;;;;;;6.70;3.73;;;11.20;99.90;;;;;;4919830;29;20207;-71
2021/05/16 04:10:25;;;;;;;4.67;2.80;;;11.20;99.90;;;;;;4919404;29;20600;-72
2021/05/16 04:12:51;;;;;;;4.60;3.00;;;11.10;99.90;;;;;;4920501;29;20206;-72
2021/05/16 04:15:16;;;;;;;6.10;3.13;;;11.20;99.90;;;;;;4919393;29;20206;-72
2021/05/16 04:17:42;;;;;;;3.10;2.73;;;11.20;99.90;;;;;;4919329;29;20258;-71
2021/05/16 04:20:08;;;;;;;7.03;3.30;;;11.20;99.90;;;;;;4919578;29;20175;-71
2021/05/16 04:22:34;;;;;;;4.47;3.50;;;11.20;99.90;;;;;;4920268;29;20186;-72
2021/05/16 04:24:59;;;;;;;6.13;2.73;;;11.20;99.90;;;;;;4919358;29;20447;-72
2021/05/16 04:27:28;;;;;;;4.03;3.00;;;11.10;99.90;;;;;;4919380;29;20187;-72
2021/05/16 04:29:53;;;;;;;6.80;2.77;;;11.20;99.90;;;;;;4919180;29;20280;-72
2021/05/16 04:32:19;;;;;;;3.63;2.60;;;11.20;99.90;;;;;;4920194;29;20589;-73
2021/05/16 04:34:45;;;;;;;5.67;3.20;;;11.10;99.90;;;;;;4918979;29;20518;-73
2021/05/16 04:37:10;;;;;;;4.83;3.23;;;11.20;99.90;;;;;;4919396;29;20167;-72
2021/05/16 04:39:36;;;;;;;3.83;2.60;;;11.20;99.90;;;;;;4919491;29;20182;-72
2021/05/16 04:42:01;;;;;;;4.20;3.03;;;11.20;99.90;;;;;;4919698;29;20281;-71
2021/05/16 04:44:27;;;;;;;3.30;2.67;;;11.20;99.90;;;;;;4919635;29;20570;-71
2021/05/16 04:46:53;;;;;;;7.03;2.83;;;11.20;99.90;;;;;;4919458;29;20693;-73
2021/05/16 04:49:18;;;;;;;3.43;2.33;;;11.20;99.90;;;;;;4918748;29;20181;-72
2021/05/16 04:51:44;;;;;;;4.70;2.90;;;11.20;99.90;;;;;;4919264;29;20190;-72
2021/05/16 04:54:09;;;;;;;5.33;3.10;;;11.10;99.90;;;;;;4919650;29;20191;-72
2021/05/16 04:56:35;;;;;;;4.60;3.43;;;11.20;99.90;;;;;;4919374;29;20181;-72
2021/05/16 04:59:02;;;;;;;3.57;3.10;;;11.10;99.90;;;;;;4918876;29;20656;-72
2021/05/16 05:01:27;;;;;;;6.80;3.00;;;11.10;99.90;;;;;;4918792;29;20734;-72
2021/05/16 05:03:55;;;;;;;6.80;2.87;;;11.20;99.90;;;;;;4918307;29;20431;-72
2021/05/16 05:06:22;;;;;;;5.83;3.70;;;11.20;99.90;;;;;;4919725;29;20203;-71
2021/05/16 05:08:47;;;;;;;6.97;2.80;;;11.30;99.90;;;;;;4918783;29;20926;-71
2021/05/16 05:11:13;;;;;;;8.37;2.97;;;11.30;99.90;;;;;;4918203;29;20466;-72
2021/05/16 05:13:38;;;;;;;5.97;3.30;;;11.30;99.90;;;;;;4918504;29;20270;-71
2021/05/16 05:16:04;;;;;;;5.53;3.43;;;11.40;99.90;;;;;;4933969;29;20326;-71
2021/05/16 05:18:32;;;;;;;5.63;2.80;;;11.40;99.90;;;;;;4918621;29;20198;-71
2021/05/16 05:20:58;;;;;;;5.20;3.17;;;11.40;99.90;;;;;;4918595;29;20805;-70
2021/05/16 05:23:23;;;;;;;8.83;5.00;;;11.50;99.90;;;;;;4918364;29;20427;-72
2021/05/16 05:25:49;;;;;;;5.00;3.10;;;11.60;99.90;;;;;;4919462;29;20534;-72
2021/05/16 05:28:17;;;;;;;7.60;3.63;;;11.60;99.90;;;;;;4918512;29;20179;-71
2021/05/16 05:30:43;;;;;;;5.73;3.43;;;11.50;99.90;;;;;;4919130;29;20175;-72
2021/05/16 05:33:09;;;;;;;7.20;3.00;;;11.50;99.90;;;;;;4937060;29;20747;-70
2021/05/16 05:35:35;;;;;;;7.43;2.83;;;11.50;99.90;;;;;;4937048;29;20225;-71
2021/05/16 05:38:00;;;;;;;6.40;3.03;;;11.60;99.90;;;;;;4936781;28;20989;-71
2021/05/16 05:40:26;;;;;;;8.50;3.07;;;11.50;99.90;;;;;;4936707;29;20175;-71
2021/05/16 05:42:51;;;;;;;8.80;3.20;;;11.60;99.90;;;;;;4935609;29;20637;-71
2021/05/16 05:45:17;;;;;;;5.63;3.33;;;11.60;99.90;;;;;;4936969;29;20201;-70
2021/05/16 05:47:43;;;;;;;5.47;3.40;;;11.70;99.90;;;;;;4936728;28;20201;-70
2021/05/16 05:50:09;;;;;;;9.23;3.40;;;11.70;99.90;;;;;;4936767;29;20253;-71
2021/05/16 05:52:35;;;;;;;7.70;3.43;;;11.80;99.90;;;;;;4930683;29;20183;-73
2021/05/16 05:55:00;;;;;;;8.53;3.40;;;11.90;99.90;;;;;;4917807;29;20523;-71
2021/05/16 05:57:26;;;;;;;8.10;3.30;;;12.10;99.90;;;;;;4918429;29;20175;-71
2021/05/16 05:59:52;;;;;;;10.60;4.50;;;12.20;99.90;;;;;;4932337;29;20198;-72
2021/05/16 06:02:17;;;;;;;7.60;3.57;;;12.20;99.90;;;;;;4935652;29;20224;-71
2021/05/16 06:04:43;;;;;;;8.03;3.50;;;12.20;99.90;;;;;;4934058;29;20248;-71
2021/05/16 06:07:09;;;;;;;7.60;3.40;;;12.40;99.90;;;;;;4936134;29;20197;-71
2021/05/16 06:09:35;;;;;;;4.40;3.20;;;12.40;99.90;;;;;;4936273;29;20206;-72
2021/05/16 06:12:01;;;;;;;6.23;3.10;;;12.50;99.90;;;;;;4936547;29;20305;-72
2021/05/16 06:14:26;;;;;;;4.80;3.13;;;12.50;99.90;;;;;;4931326;29;20450;-71
2021/05/16 06:16:52;;;;;;;7.33;3.07;;;12.50;99.90;;;;;;4917285;29;20664;-70
2021/05/16 06:19:18;;;;;;;4.43;2.57;;;12.60;99.90;;;;;;4923972;29;20687;-71
2021/05/16 06:21:43;;;;;;;9.30;3.50;;;12.80;99.90;;;;;;4936720;29;20201;-70
2021/05/16 06:24:10;;;;;;;6.40;3.73;;;12.90;99.90;;;;;;4930976;29;20721;-70
2021/05/16 06:26:39;;;;;;;5.63;3.50;;;13.00;99.90;;;;;;4916977;29;20178;-70
2021/05/16 06:29:05;;;;;;;5.63;2.80;;;13.10;99.90;;;;;;4917739;29;20481;-70
2021/05/16 06:31:31;;;;;;;6.50;3.30;;;13.20;99.90;;;;;;4917461;29;20438;-71
2021/05/16 06:33:57;;;;;;;7.63;3.20;;;13.10;99.90;;;;;;4917568;29;20404;-70
2021/05/16 06:36:23;;;;;;;6.77;3.33;;;13.20;99.90;;;;;;4918768;29;20443;-70
2021/05/16 06:38:49;;;;;;;9.33;3.90;;;13.20;99.90;;;;;;4918399;29;20660;-70
2021/05/16 06:41:15;;;;;;;8.32;3.85;;;13.10;99.90;;;;;;4919228;29;20814;-70
2021/05/16 06:43:41;;;;;;;10.37;4.30;;;13.00;99.90;;;;;;4923932;29;20221;-70
2021/05/16 06:46:07;;;;;;;7.83;3.83;;;13.00;99.90;;;;;;4936049;29;20199;-70
2021/05/16 06:48:34;;;;;;;12.00;4.60;;;13.00;99.90;;;;;;4936382;29;20855;-70
2021/05/16 06:50:59;;;;;;;8.93;5.30;;;12.90;99.90;;;;;;4936687;29;20166;-70
2021/05/16 06:53:25;;;;;;;8.40;4.33;;;12.80;99.90;;;;;;4936753;29;20493;-70
2021/05/16 06:55:50;;;;;;;10.53;4.70;;;12.80;99.90;;;;;;4935108;29;20198;-71
2021/05/16 06:58:16;;;;;;;6.60;4.33;;;12.80;99.90;;;;;;4936622;29;20220;-71
2021/05/16 07:00:42;;;;;;;5.47;3.97;;;12.70;99.90;;;;;;4936607;29;20202;-70
2021/05/16 07:03:07;;;;;;;9.97;4.00;;;12.70;99.90;;;;;;4936233;28;20187;-70
2021/05/16 07:05:33;;;;;;;6.53;3.80;;;12.60;99.90;;;;;;4936673;29;20194;-70
2021/05/16 07:07:59;;;;;;;7.90;4.40;;;12.60;99.90;;;;;;4934669;29;20171;-70
2021/05/16 07:10:25;;;;;;;8.10;4.10;;;12.40;99.90;;;;;;4936578;29;20440;-71
2021/05/16 07:12:50;;;;;;;11.03;3.93;;;12.40;99.90;;;;;;4950505;29;20190;-71
2021/05/16 07:15:17;;;;;;;9.60;3.80;;;12.30;99.90;;;;;;4935595;29;20598;-71
2021/05/16 07:17:43;;;;;;;7.77;4.20;;;12.20;99.90;;;;;;4933793;29;20177;-70
2021/05/16 07:20:10;;;;;;;7.60;3.93;;;12.10;99.90;;;;;;4927401;29;20433;-70
2021/05/16 07:22:35;;;;;;;9.00;4.47;;;12.20;99.90;;;;;;4915350;29;20464;-70
2021/05/16 07:25:01;;;;;;;6.40;3.90;;;12.10;99.90;;;;;;4924456;29;20547;-70
2021/05/16 07:27:27;;;;;;;8.00;4.50;;;12.20;99.90;;;;;;4933894;29;20527;-70
2021/05/16 07:29:53;;;;;;;10.23;4.03;;;12.30;99.90;;;;;;4935432;29;20583;-70
2021/05/16 07:32:19;;;;;;;12.40;4.17;;;12.30;99.90;;;;;;4935322;29;20924;-70
2021/05/16 07:34:45;;;;;;;14.43;4.73;;;12.30;99.90;;;;;;4935847;29;20482;-70
2021/05/16 07:37:10;;;;;;;8.23;3.33;;;12.40;99.90;;;;;;4936582;29;20667;-70
2021/05/16 07:39:36;;;;;;;7.47;3.30;;;12.50;99.90;;;;;;4927157;29;20205;-70
2021/05/16 07:42:02;;;;;;;9.07;3.30;;;12.60;99.90;;;;;;4920185;29;20281;-70
2021/05/16 07:44:30;;;;;;;7.07;2.80;;;12.60;99.90;;;;;;4919767;29;20521;-70
2021/05/16 07:46:56;;;;;;;8.87;3.13;;;12.70;99.90;;;;;;4920475;29;20182;-70
2021/05/16 07:49:21;;;;;;;7.80;3.83;;;12.80;99.90;;;;;;4936608;28;20434;-71
2021/05/16 07:51:47;;;;;;;5.85;3.20;;;12.90;99.90;;;;;;4938365;29;20757;-70
2021/05/16 07:54:13;;;;;;;4.47;2.93;;;12.80;99.90;;;;;;4938825;29;20181;-72
2021/05/16 07:56:39;;;;;;;6.90;2.83;;;12.80;99.90;;;;;;4936534;29;20939;-70
2021/05/16 07:59:04;;;;;;;4.97;2.73;;;12.90;99.90;;;;;;4938287;29;20174;-72
2021/05/16 08:01:30;;;;;;;6.23;3.10;;;13.00;99.90;;;;;;4927768;29;20202;-71
2021/05/16 08:03:55;;;;;;;7.57;3.07;;;13.00;99.90;;;;;;4938165;29;20626;-71
2021/05/16 08:06:21;;;;;;;6.50;3.20;;;13.00;99.90;;;;;;4936776;29;20484;-71
2021/05/16 08:08:47;;;;;;;8.40;4.47;;;13.00;99.90;;;;;;4938397;29;20230;-71
2021/05/16 08:11:12;;;;;;;7.37;3.33;;;13.20;99.90;;;;;;4930718;29;20187;-72
2021/05/16 08:13:38;;;;;;;6.07;3.53;;;13.30;99.90;;;;;;4931416;29;20209;-71
2021/05/16 08:16:04;;;;;;;8.90;3.90;;;13.40;99.90;;;;;;4938339;29;20218;-71
2021/05/16 08:18:29;;;;;;;7.17;4.40;;;13.50;99.90;;;;;;4938553;29;20182;-71
2021/05/16 08:20:55;;;;;;;7.60;5.67;;;13.50;99.90;;;;;;4936543;29;20454;-71
2021/05/16 08:23:21;;;;;;;9.30;3.83;;;13.70;99.90;;;;;;4919376;29;20562;-71
2021/05/16 08:25:47;;;;;;;8.77;3.10;;;13.80;99.90;;;;;;4919154;29;20660;-70
2021/05/16 08:28:12;;;;;;;9.47;3.97;;;13.80;99.90;;;;;;4919674;29;20207;-71
2021/05/16 08:30:38;;;;;;;10.57;4.07;;;13.90;99.90;;;;;;4919371;29;20179;-71
2021/05/16 08:33:04;;;;;;;10.67;3.93;;;14.00;99.90;;;;;;4931941;29;20434;-72
2021/05/16 08:35:30;;;;;;;10.23;6.00;;;14.10;99.90;;;;;;4937507;29;20542;-71
2021/05/16 08:37:55;;;;;;;5.53;3.80;;;14.10;99.90;;;;;;4937049;29;20607;-70
2021/05/16 08:40:21;;;;;;;8.10;3.60;;;14.00;99.90;;;;;;4940848;29;20202;-68
2021/05/16 08:42:47;;;;;;;7.70;4.47;;;14.00;99.90;;;;;;4941464;29;20596;-69
2021/05/16 08:45:14;;;;;;;7.00;4.20;;;14.00;99.90;;;;;;4937387;29;20195;-71
2021/05/16 08:47:44;;;;;;;7.83;4.50;;;14.20;99.90;;;;;;4937796;29;20175;-71
2021/05/16 08:50:13;;;;;;;6.57;4.20;;;14.30;99.90;;;;;;4936442;29;20500;-72
2021/05/16 08:52:38;;;;;;;7.33;3.60;;;14.10;99.90;;;;;;4935374;29;20277;-72
2021/05/16 08:55:05;;;;;;;7.93;3.10;;;14.10;99.90;;;;;;4927367;29;20596;-71
2021/05/16 08:57:32;;;;;;;6.50;3.27;;;14.20;99.90;;;;;;4936455;29;20194;-71
2021/05/16 09:00:21;;;;;;;9.57;3.67;;;14.20;99.90;;;;;;4927923;29;20974;-70
2021/05/16 09:03:06;;;;;;;7.70;4.47;;;14.10;99.90;;;;;;4917648;29;20457;-71
2021/05/16 09:05:41;;;;;;;6.80;4.47;;;14.20;99.90;;;;;;4929618;29;20450;-69
2021/05/16 09:08:18;;;;;;;5.33;3.63;;;14.50;99.90;;;;;;4942957;29;20744;-70
2021/05/16 09:10:56;;;;;;;4.57;3.87;;;14.70;99.90;;;;;;4934487;29;20437;-71
2021/05/16 09:13:30;;;;;;;5.53;4.20;;;14.90;99.90;;;;;;4936933;29;20815;-72
2021/05/16 09:16:17;;;;;;;5.80;4.43;;;15.10;99.90;;;;;;4922610;29;20493;-72
2021/05/16 09:18:47;;;;;;;6.00;3.50;;;15.10;99.90;;;;;;4930143;29;20429;-72
2021/05/16 09:21:29;;;;;;;3.43;2.70;;;15.10;99.90;;;;;;4936432;29;20560;-72
2021/05/16 09:24:04;;;;;;;3.37;2.80;;;14.90;99.90;;;;;;4931957;29;20807;-72
2021/05/16 09:26:32;;;;;;;5.87;2.73;;;15.20;99.90;;;;;;4931025;29;20434;-72
2021/05/16 09:29:22;;;;;;;4.57;2.97;;;15.50;99.90;;;;;;4935734;29;20465;-72
2021/05/16 09:31:49;;;;;;;4.43;2.60;;;15.50;99.90;;;;;;4928738;29;20535;-71
2021/05/16 09:34:15;;;;;;;3.73;2.20;;;15.30;99.90;;;;;;4925973;29;20454;-71
2021/05/16 09:36:42;;;;;;;2.93;2.43;;;15.20;99.90;;;;;;4924238;29;20526;-72
2021/05/16 09:39:22;;;;;;;6.40;2.50;;;15.00;99.90;;;;;;4930122;29;20448;-72
2021/05/16 09:42:08;;;;;;;5.83;2.70;;;15.10;99.90;;;;;;4930431;29;20564;-71
2021/05/16 09:44:39;;;;;;;3.67;2.67;;;15.20;99.90;;;;;;4918744;28;20450;-72
2021/05/16 09:47:12;;;;;;;3.20;2.80;;;15.20;99.90;;;;;;4921887;29;20406;-71
2021/05/16 09:49:38;;;;;;;7.57;3.40;;;15.20;99.90;;;;;;4932567;29;20887;-71
2021/05/16 09:52:12;;;;;;;7.28;3.10;;;15.50;99.90;;;;;;4923857;29;20466;-71
2021/05/16 09:54:55;;;;;;;9.10;3.03;;;15.70;99.90;;;;;;4931093;29;20257;-71
2021/05/16 09:57:21;;;;;;;7.60;2.67;;;15.90;99.90;;;;;;4932869;29;20428;-71
2021/05/16 09:59:47;;;;;;;5.13;3.40;;;16.20;99.90;;;;;;4932380;29;20422;-71
2021/05/16 10:02:15;;;;;;;7.60;2.97;;;16.30;99.60;;;;;;4922734;29;20234;-71
2021/05/16 10:04:44;;;;;;;4.83;2.70;;;16.20;99.90;;;;;;4930472;29;20248;-71
2021/05/16 10:07:10;;;;;;;4.90;2.97;;;16.30;99.80;;;;;;4918584;29;20477;-71
2021/05/16 10:09:36;;;;;;;5.00;3.60;;;16.30;99.90;;;;;;4931953;29;20512;-71
2021/05/16 10:12:06;;;;;;;8.77;3.70;;;15.80;99.90;;;;;;4925880;29;20882;-71
2021/05/16 10:14:38;;;;;;;2.80;2.50;;;15.60;99.90;;;;;;4929529;29;20201;-72
2021/05/16 10:17:06;;;;;;;4.40;2.83;;;15.30;99.90;;;;;;4936098;29;20855;-71
2021/05/16 10:19:35;;;;;;;4.27;1.80;;;15.20;99.90;;;;;;4952477;29;20438;-71
2021/05/16 10:22:26;;;;;;;3.50;2.20;;;14.90;99.90;;;;;;4950973;29;20466;-71
2021/05/16 10:24:53;;;;;;;3.03;1.80;;;14.80;99.90;;;;;;4932277;29;20453;-71
2021/05/16 10:27:40;;;;;;;1.90;1.70;;;14.60;99.90;;;;;;4932494;29;20477;-70
2021/05/16 10:30:07;;;;;;;3.07;1.87;;;14.50;99.90;;;;;;4932332;29;20907;-71
2021/05/16 10:32:41;;;;;;;3.00;2.50;;;14.50;99.90;;;;;;4931827;29;20504;-71
2021/05/16 10:35:11;;;;;;;3.70;2.40;;;14.50;99.90;;;;;;4923733;29;20564;-71
2021/05/16 10:37:40;;;;;;;4.30;2.40;;;14.50;99.90;;;;;;4932538;29;20968;-70
2021/05/16 10:40:12;;;;;;;3.13;2.50;;;14.60;99.90;;;;;;4932451;29;20517;-70
2021/05/16 10:42:40;;;;;;;6.47;2.57;;;14.80;99.90;;;;;;4946606;29;21026;-71
2021/05/16 10:45:13;;;;;;;4.80;3.00;;;15.00;99.90;;;;;;4921046;29;20465;-68
2021/05/16 10:47:47;;;;;;;6.03;2.87;;;15.10;99.90;;;;;;4932360;29;20437;-71
2021/05/16 10:50:40;;;;;;;6.43;2.80;;;15.30;99.90;;;;;;4932163;29;20462;-70
2021/05/16 10:53:15;;;;;;;4.47;2.60;;;15.50;99.90;;;;;;4917851;29;20505;-70
2021/05/16 10:55:47;;;;;;;5.87;2.60;;;15.60;99.90;;;;;;4926485;29;20465;-70
2021/05/16 10:58:31;;;;;;;7.03;2.70;;;15.90;99.90;;;;;;4932797;29;20920;-70
2021/05/16 11:01:11;;;;;;;3.23;2.30;;;16.20;99.90;;;;;;4932657;29;20982;-70
2021/05/16 11:03:46;;;;;;;7.80;2.80;;;16.30;99.90;;;;;;4932260;29;20418;-70
2021/05/16 11:06:13;;;;;;;7.33;3.47;;;16.30;99.90;;;;;;4931848;29;20878;-70
2021/05/16 11:08:39;;;;;;;5.07;2.70;;;16.30;99.90;;;;;;4931825;29;20432;-71
2021/05/16 11:11:39;;;;;;;8.80;3.10;;;16.20;99.90;;;;;;4932520;29;20516;-70
2021/05/16 11:14:23;;;;;;;4.23;2.87;;;16.00;99.90;;;;;;4934995;29;20643;-71
2021/05/16 11:16:58;;;;;;;7.00;3.97;;;15.80;99.90;;;;;;4925060;29;21279;-70
2021/05/16 11:19:29;;;;;;;5.00;3.37;;;15.80;99.90;;;;;;4936614;29;20613;-70
2021/05/16 11:21:56;;;;;;;5.20;2.53;;;15.60;99.90;;;;;;4936330;29;20590;-70
2021/05/16 11:24:36;;;;;;;4.53;2.60;;;15.70;99.90;;;;;;4935443;29;20842;-70
2021/05/16 11:27:12;;;;;;;5.33;2.70;;;15.70;99.90;;;;;;4933628;29;20433;-70
2021/05/16 11:29:37;;;;;;;4.47;2.90;;;15.70;99.90;;;;;;4935444;29;20421;-70
2021/05/16 11:32:04;;;;;;;4.60;2.37;;;15.70;99.90;;;;;;4935435;29;20781;-71
2021/05/16 11:34:30;;;;;;;4.13;2.27;;;15.70;99.90;;;;;;4949815;29;20292;-71
2021/05/16 11:36:55;;;;;;;6.80;2.77;;;15.90;99.90;;;;;;4934870;29;20573;-71
2021/05/16 11:39:21;;;;;;;5.67;2.03;;;15.80;99.90;;;;;;4934666;29;20256;-71
2021/05/16 11:41:47;;;;;;;6.37;2.57;;;15.80;99.90;;;;;;4935453;29;20463;-71
2021/05/16 11:44:21;;;;;;;6.00;2.30;;;15.90;99.90;;;;;;4934774;29;20193;-71
2021/05/16 11:46:48;;;;;;;2.90;2.67;;;15.90;99.90;;;;;;4935394;29;20182;-71
2021/05/16 11:49:24;;;;;;;6.80;3.10;;;15.70;99.80;;;;;;4924265;29;20425;-71
2021/05/16 11:51:50;;;;;;;4.37;2.60;;;15.70;99.80;;;;;;4934031;29;20277;-71
2021/05/16 11:54:16;;;;;;;6.37;2.53;;;15.70;99.40;;;;;;4933968;29;20967;-71
2021/05/16 11:56:46;;;;;;;2.87;2.00;;;15.70;99.10;;;;;;4934188;29;20501;-70
2021/05/16 11:59:12;;;;;;;5.20;2.20;;;15.70;99.40;;;;;;4933367;29;20281;-69
2021/05/16 12:01:40;;;;;;;5.27;3.40;;;15.80;99.70;;;;;;4935675;29;20594;-69
2021/05/16 12:04:14;;;;;;;4.37;1.97;;;15.70;98.80;;;;;;4934762;29;20486;-70
2021/05/16 12:06:45;;;;;;;5.40;2.27;;;15.80;99.10;;;;;;4934853;29;20422;-70
2021/05/16 12:09:19;;;;;;;5.70;1.83;;;16.00;98.80;;;;;;4933989;29;20481;-70
2021/05/16 12:11:51;;;;;;;6.43;2.20;;;16.20;98.00;;;;;;4934429;29;20423;-70
2021/05/16 12:14:27;;;;;;;4.03;2.40;;;16.30;97.30;;;;;;4933015;29;21034;-70
2021/05/16 12:17:00;;;;;;;4.33;2.13;;;16.60;96.60;;;;;;4934421;29;20449;-70
2021/05/16 12:19:35;;;;;;;4.23;2.40;;;16.80;96.20;;;;;;4932984;29;20430;-70
2021/05/16 12:22:05;;;;;;;5.30;2.30;;;16.70;94.90;;;;;;4934634;29;20469;-70
2021/05/16 12:24:36;;;;;;;5.13;2.57;;;16.70;94.30;;;;;;4932106;28;20930;-69
2021/05/16 12:27:04;;;;;;;3.87;2.33;;;16.80;94.60;;;;;;4934089;29;20803;-71
2021/05/16 12:29:30;;;;;;;5.57;2.60;;;16.70;93.90;;;;;;4935118;29;20414;-69
2021/05/16 12:31:56;;;;;;;2.60;1.70;;;16.60;94.50;;;;;;4928623;29;20434;-69
2021/05/16 12:34:24;;;;;;;3.93;2.10;;;16.80;94.40;;;;;;4933960;29;20511;-69
2021/05/16 12:36:53;;;;;;;6.17;2.30;;;16.60;94.40;;;;;;4934797;29;20454;-70
2021/05/16 12:39:39;;;;;;;3.60;2.40;;;16.70;94.40;;;;;;4934723;29;20982;-70
2021/05/16 12:42:39;;;;;;;6.60;2.80;;;16.60;94.30;;;;;;4933337;29;20469;-69
2021/05/16 12:45:19;;;;;;;5.30;2.33;;;16.70;94.40;;;;;;4934596;29;20501;-70
2021/05/16 12:48:05;;;;;;;3.70;2.30;;;17.00;94.20;;;;;;4934689;29;20428;-71
2021/05/16 12:50:45;;;;;;;3.90;2.73;;;17.00;94.10;;;;;;4934423;29;20417;-71